Time;durP1;ratioP1;P1;durP2;ratioP2;P2;SDS_P1;SDS_P2;PMS_P1;PMS_P2;Temp;Humidity;BMP_temperature;BMP_pressure;BME280_temperature;BME280_humidity;BME280_pressure;Samples;Min_cycle;Max_cycle;Signal;HPM_P1;HPM_P2
2021/12/21 00:00:57;;;;;;;43.33;14.38;;;;;;;;;;4856243;29;20041;-82
2021/12/21 00:03:30;;;;;;;42.97;14.07;;;;;;;;;;4847459;29;20060;-82
2021/12/21 00:05:56;;;;;;;39.35;13.75;;;;;;;;;;4850658;29;20034;-81
2021/12/21 00:08:22;;;;;;;41.25;15.20;;;;;;;;;;4833859;29;20494;-81
2021/12/21 00:10:48;;;;;;;37.97;16.02;;;;;;;;;;4854506;29;20514;-82
2021/12/21 00:13:41;;;;;;;34.20;14.38;;;;;;;;;;4851204;29;20033;-82
2021/12/21 00:21:41;;;;;;;41.75;14.05;;;;;;;;;;4813354;29;20047;-81
2021/12/21 00:24:14;;;;;;;38.90;14.02;;;;;;;;;;4816757;29;20080;-82
2021/12/21 00:26:40;;;;;;;44.95;14.38;;;;;;;;;;4830769;29;20105;-82
2021/12/21 00:29:06;;;;;;;44.20;14.13;;;;;;;;;;4851435;29;20486;-82
2021/12/21 00:31:34;;;;;;;42.50;13.80;;;;;;;;;;4851752;29;20036;-81
2021/12/21 00:34:01;;;;;;;33.00;13.25;;;;;;;;;;4836781;29;20410;-82
2021/12/21 00:36:28;;;;;;;38.17;13.15;;;;;;;;;;4850246;29;20033;-81
2021/12/21 00:38:55;;;;;;;52.97;15.27;;;;;;;;;;4854761;29;20132;-82
2021/12/21 00:41:22;;;;;;;44.25;15.15;;;;;;;;;;4836319;29;20034;-81
2021/12/21 00:43:48;;;;;;;34.05;15.73;;;;;;;;;;4848422;29;20505;-81
2021/12/21 00:46:15;;;;;;;43.10;14.82;;;;;;;;;;4851366;29;20150;-82
2021/12/21 00:48:49;;;;;;;39.05;16.15;;;;;;;;;;4848614;29;20036;-81
2021/12/21 00:51:15;;;;;;;46.25;15.73;;;;;;;;;;4853174;29;20037;-82
2021/12/21 00:53:41;;;;;;;38.10;15.98;;;;;;;;;;4847842;29;20130;-82
2021/12/21 00:56:08;;;;;;;49.45;16.23;;;;;;;;;;4835945;29;20034;-82
2021/12/21 00:58:34;;;;;;;49.58;15.85;;;;;;;;;;4850146;29;20026;-82
2021/12/21 01:01:05;;;;;;;39.88;15.07;;;;;;;;;;4854733;29;20033;-81
2021/12/21 01:03:32;;;;;;;50.65;16.75;;;;;;;;;;4851376;29;20542;-82
2021/12/21 01:06:14;;;;;;;45.00;16.65;;;;;;;;;;4845905;29;20033;-82
2021/12/21 01:09:44;;;;;;;42.33;15.85;;;;;;;;;;4835804;29;20132;-82
2021/12/21 01:11:32;;;;;;;49.33;17.08;;;;;;;;;;4849825;29;20777;-82
2021/12/21 01:16:47;;;;;;;49.60;16.65;;;;;;;;;;4853989;29;20034;-82
2021/12/21 01:19:28;;;;;;;51.40;17.33;;;;;;;;;;4832951;29;20033;-82
2021/12/21 01:22:20;;;;;;;52.85;17.30;;;;;;;;;;4836594;29;20842;-82
2021/12/21 01:30:17;;;;;;;58.53;19.45;;;;;;;;;;4852659;29;20036;-82
2021/12/21 01:35:13;;;;;;;51.42;17.52;;;;;;;;;;4855242;29;20048;-82
2021/12/21 01:37:59;;;;;;;55.40;18.13;;;;;;;;;;4833154;29;20117;-84
2021/12/21 01:40:39;;;;;;;49.88;15.80;;;;;;;;;;4835303;29;20241;-82
2021/12/21 01:44:02;;;;;;;44.25;16.40;;;;;;;;;;4850709;29;20038;-82
2021/12/21 01:51:22;;;;;;;46.53;16.25;;;;;;;;;;4850667;29;20129;-82
2021/12/21 01:53:49;;;;;;;44.30;15.77;;;;;;;;;;4835597;29;20090;-82
2021/12/21 01:56:15;;;;;;;51.75;16.80;;;;;;;;;;4837172;29;20036;-82
2021/12/21 01:58:41;;;;;;;44.22;16.55;;;;;;;;;;4835571;29;20033;-82
2021/12/21 02:01:08;;;;;;;42.38;15.45;;;;;;;;;;4850604;29;20042;-82
2021/12/21 02:03:35;;;;;;;34.55;14.68;;;;;;;;;;4835813;29;20494;-82
2021/12/21 02:06:01;;;;;;;37.88;15.00;;;;;;;;;;4834147;29;20425;-82
2021/12/21 02:08:27;;;;;;;47.03;16.52;;;;;;;;;;4834640;29;20499;-82
2021/12/21 02:10:53;;;;;;;42.53;16.15;;;;;;;;;;4851387;29;20025;-82
2021/12/21 02:13:19;;;;;;;42.05;15.10;;;;;;;;;;4834367;29;20042;-82
2021/12/21 02:15:46;;;;;;;43.45;16.02;;;;;;;;;;4844184;29;20034;-82
2021/12/21 02:18:49;;;;;;;47.67;16.00;;;;;;;;;;4835316;29;20041;-82
2021/12/21 02:21:32;;;;;;;43.85;14.25;;;;;;;;;;4844859;29;20049;-82
2021/12/21 02:23:53;;;;;;;37.63;14.18;;;;;;;;;;4850608;29;20162;-82
2021/12/21 02:26:38;;;;;;;44.35;15.15;;;;;;;;;;4846224;29;20045;-81
2021/12/21 02:31:40;;;;;;;44.90;14.52;;;;;;;;;;4850991;29;20034;-82
2021/12/21 02:34:08;;;;;;;46.03;16.08;;;;;;;;;;4850595;29;20112;-82
2021/12/21 02:36:34;;;;;;;51.80;15.13;;;;;;;;;;4836645;29;20036;-82
2021/12/21 02:39:01;;;;;;;50.42;15.15;;;;;;;;;;4836248;29;20061;-82
2021/12/21 02:41:27;;;;;;;41.92;14.55;;;;;;;;;;4831854;29;20720;-82
2021/12/21 02:43:56;;;;;;;36.05;14.63;;;;;;;;;;4832763;29;20053;-82
2021/12/21 02:46:22;;;;;;;42.40;14.38;;;;;;;;;;4851541;29;20037;-82
2021/12/21 02:48:48;;;;;;;43.28;14.40;;;;;;;;;;4838176;29;20042;-82
2021/12/21 02:51:14;;;;;;;42.95;15.10;;;;;;;;;;4848790;29;20113;-82
2021/12/21 02:53:41;;;;;;;35.30;14.25;;;;;;;;;;4850081;29;20035;-82
2021/12/21 02:56:07;;;;;;;31.48;14.30;;;;;;;;;;4833741;29;20037;-82
2021/12/21 02:58:33;;;;;;;43.90;14.68;;;;;;;;;;4836648;29;20240;-82
2021/12/21 03:00:59;;;;;;;40.85;13.35;;;;;;;;;;4831970;29;20508;-82
2021/12/21 03:03:33;;;;;;;39.42;13.82;;;;;;;;;;4868322;29;20045;-82
2021/12/21 03:05:59;;;;;;;35.15;13.63;;;;;;;;;;4855969;29;20040;-82
2021/12/21 03:08:37;;;;;;;45.38;12.20;;;;;;;;;;4856512;29;20034;-82
2021/12/21 03:11:11;;;;;;;30.90;11.02;;;;;;;;;;4848663;29;20135;-82
2021/12/21 03:16:22;;;;;;;39.83;11.95;;;;;;;;;;4870629;29;20048;-82
2021/12/21 03:18:49;;;;;;;34.22;11.93;;;;;;;;;;4855877;29;20065;-81
2021/12/21 03:21:15;;;;;;;41.03;12.32;;;;;;;;;;4853282;29;20591;-82
2021/12/21 03:23:41;;;;;;;31.90;12.48;;;;;;;;;;4850910;29;20428;-82
2021/12/21 03:26:07;;;;;;;40.17;12.07;;;;;;;;;;4843530;29;20409;-82
2021/12/21 03:28:33;;;;;;;36.45;13.07;;;;;;;;;;4857273;29;20465;-82
2021/12/21 03:30:59;;;;;;;34.78;12.77;;;;;;;;;;4851678;29;20454;-82
2021/12/21 03:33:25;;;;;;;31.05;11.27;;;;;;;;;;4869976;29;20033;-82
2021/12/21 03:35:51;;;;;;;41.55;12.15;;;;;;;;;;4869193;29;20037;-82
2021/12/21 03:38:17;;;;;;;30.23;12.50;;;;;;;;;;4873948;29;20041;-82
2021/12/21 03:40:44;;;;;;;31.80;12.55;;;;;;;;;;4852352;29;20045;-82
2021/12/21 03:43:11;;;;;;;31.48;11.68;;;;;;;;;;4853354;29;20029;-82
2021/12/21 03:45:49;;;;;;;29.00;11.57;;;;;;;;;;4859337;29;20103;-83
2021/12/21 03:48:16;;;;;;;33.72;11.27;;;;;;;;;;4866502;29;20430;-82
2021/12/21 03:50:42;;;;;;;41.33;11.55;;;;;;;;;;4866812;29;20088;-81
2021/12/21 03:53:08;;;;;;;34.33;12.10;;;;;;;;;;4854215;29;20037;-83
2021/12/21 03:55:34;;;;;;;37.10;12.90;;;;;;;;;;4853976;29;20025;-82
2021/12/21 03:58:00;;;;;;;24.55;10.27;;;;;;;;;;4866404;29;20119;-82
2021/12/21 04:00:28;;;;;;;37.45;12.48;;;;;;;;;;4871054;29;20040;-82
2021/12/21 04:02:54;;;;;;;28.85;11.45;;;;;;;;;;4854375;29;20059;-82
2021/12/21 04:05:20;;;;;;;35.72;11.95;;;;;;;;;;4858656;29;20108;-83
2021/12/21 04:07:46;;;;;;;37.20;12.15;;;;;;;;;;4853354;29;20033;-83
2021/12/21 04:10:12;;;;;;;42.50;11.25;;;;;;;;;;4870095;29;20040;-83
2021/12/21 04:12:38;;;;;;;35.80;11.98;;;;;;;;;;4869659;29;20033;-82
2021/12/21 04:15:07;;;;;;;34.70;12.18;;;;;;;;;;4872027;29;20040;-82
2021/12/21 04:17:33;;;;;;;34.42;11.20;;;;;;;;;;4855332;29;20033;-83
2021/12/21 04:19:59;;;;;;;29.60;11.23;;;;;;;;;;4865725;29;20045;-82
2021/12/21 04:22:26;;;;;;;24.63;10.30;;;;;;;;;;4867590;29;20594;-82
2021/12/21 04:24:52;;;;;;;33.03;9.95;;;;;;;;;;4867495;29;20525;-82
2021/12/21 04:27:18;;;;;;;31.02;10.48;;;;;;;;;;4855229;29;20039;-83
2021/12/21 04:29:44;;;;;;;25.45;10.20;;;;;;;;;;4855628;29;20037;-83
2021/12/21 04:32:10;;;;;;;40.38;11.40;;;;;;;;;;4854319;29;20026;-83
2021/12/21 04:34:38;;;;;;;27.55;11.13;;;;;;;;;;4866317;29;20545;-83
2021/12/21 04:37:05;;;;;;;27.98;10.60;;;;;;;;;;4855395;29;20029;-83
2021/12/21 04:39:41;;;;;;;28.25;11.48;;;;;;;;;;4869959;29;20043;-81
2021/12/21 04:42:08;;;;;;;31.75;10.60;;;;;;;;;;4868805;29;20030;-82
2021/12/21 04:44:34;;;;;;;26.70;10.38;;;;;;;;;;4855991;29;20029;-83
2021/12/21 04:47:00;;;;;;;26.33;10.35;;;;;;;;;;4851708;29;20494;-83
2021/12/21 04:49:26;;;;;;;24.50;10.35;;;;;;;;;;4854934;29;20084;-83
2021/12/21 04:51:52;;;;;;;25.75;11.25;;;;;;;;;;4858337;29;20037;-83
2021/12/21 04:54:18;;;;;;;25.23;10.43;;;;;;;;;;4856789;29;20036;-83
2021/12/21 04:56:44;;;;;;;32.28;11.38;;;;;;;;;;4850860;29;20036;-83
2021/12/21 04:59:10;;;;;;;30.95;10.93;;;;;;;;;;4854177;29;20434;-83
2021/12/21 05:01:36;;;;;;;33.28;12.20;;;;;;;;;;4854412;29;20128;-82
2021/12/21 05:04:09;;;;;;;37.00;12.70;;;;;;;;;;4871578;29;20060;-83
2021/12/21 05:06:35;;;;;;;30.52;10.57;;;;;;;;;;4857435;29;20033;-83
2021/12/21 05:09:21;;;;;;;35.65;11.40;;;;;;;;;;4858838;29;20059;-82
2021/12/21 05:11:47;;;;;;;28.70;11.07;;;;;;;;;;4854819;29;20340;-82
2021/12/21 05:14:13;;;;;;;28.73;9.98;;;;;;;;;;4854720;29;20422;-82
2021/12/21 05:16:39;;;;;;;27.40;11.50;;;;;;;;;;4869588;29;20075;-82
2021/12/21 05:19:06;;;;;;;38.88;10.60;;;;;;;;;;4851862;29;20494;-83
2021/12/21 05:21:32;;;;;;;27.70;10.27;;;;;;;;;;4870485;29;20081;-83
2021/12/21 05:23:58;;;;;;;25.80;10.18;;;;;;;;;;4855555;29;20080;-83
2021/12/21 05:26:24;;;;;;;29.65;9.95;;;;;;;;;;4859461;29;20064;-82
2021/12/21 05:28:50;;;;;;;31.27;10.63;;;;;;;;;;4869159;29;20143;-83
2021/12/21 05:31:16;;;;;;;34.08;10.98;;;;;;;;;;4854375;29;20041;-83
2021/12/21 05:33:43;;;;;;;26.90;9.88;;;;;;;;;;4871556;29;20033;-83
2021/12/21 05:36:09;;;;;;;127.07;42.95;;;;;;;;;;4854694;29;20438;-83
2021/12/21 05:38:35;;;;;;;104.80;35.53;;;;;;;;;;4868887;29;20036;-82
2021/12/21 05:41:06;;;;;;;50.00;18.65;;;;;;;;;;4870102;29;20037;-83
2021/12/21 05:43:32;;;;;;;51.40;18.33;;;;;;;;;;4855209;29;20033;-82
2021/12/21 05:45:58;;;;;;;31.55;12.05;;;;;;;;;;4860404;29;20791;-83
2021/12/21 05:48:24;;;;;;;34.63;11.95;;;;;;;;;;4871663;29;20021;-82
2021/12/21 05:50:50;;;;;;;33.55;11.63;;;;;;;;;;4867650;29;20500;-82
2021/12/21 05:53:16;;;;;;;26.90;11.00;;;;;;;;;;4852344;29;20025;-83
2021/12/21 05:55:42;;;;;;;29.63;10.95;;;;;;;;;;4858375;29;20044;-82
2021/12/21 05:58:08;;;;;;;31.02;10.73;;;;;;;;;;4869898;29;20021;-83
2021/12/21 06:00:35;;;;;;;31.05;10.90;;;;;;;;;;4872567;29;20175;-83
2021/12/21 06:03:01;;;;;;;30.52;10.85;;;;;;;;;;4866869;29;20021;-83
2021/12/21 06:05:28;;;;;;;37.88;11.77;;;;;;;;;;4840416;29;20081;-82
2021/12/21 06:07:55;;;;;;;26.48;9.30;;;;;;;;;;4835710;29;20037;-83
2021/12/21 06:10:36;;;;;;;28.88;10.20;;;;;;;;;;4854131;29;20054;-80
2021/12/21 06:26:14;;;;;;;27.77;9.57;;;;;;;;;;4849707;29;20057;-82
2021/12/21 06:28:44;;;;;;;28.45;9.93;;;;;;;;;;4851564;29;20383;-83
2021/12/21 06:31:11;;;;;;;24.55;9.05;;;;;;;;;;4849628;29;20054;-83
2021/12/21 06:33:37;;;;;;;23.77;9.50;;;;;;;;;;4835032;29;21081;-82
2021/12/21 06:36:04;;;;;;;27.40;9.63;;;;;;;;;;4837781;29;20034;-83
2021/12/21 06:38:30;;;;;;;26.23;9.77;;;;;;;;;;4834174;29;20117;-83
2021/12/21 06:40:56;;;;;;;26.05;10.57;;;;;;;;;;4836733;29;20060;-83
2021/12/21 06:43:22;;;;;;;28.40;9.32;;;;;;;;;;4851483;29;20113;-83
2021/12/21 06:46:03;;;;;;;26.65;9.65;;;;;;;;;;4837783;29;20513;-79
2021/12/21 06:53:42;;;;;;;27.65;8.93;;;;;;;;;;4847523;29;20491;-79
2021/12/21 06:56:09;;;;;;;26.02;9.63;;;;;;;;;;4832216;29;20042;-79
2021/12/21 06:58:35;;;;;;;20.67;8.27;;;;;;;;;;4832772;29;20038;-79
2021/12/21 07:01:01;;;;;;;29.58;9.05;;;;;;;;;;4849153;29;20068;-80
2021/12/21 07:03:28;;;;;;;24.58;9.23;;;;;;;;;;4834242;29;20137;-80
2021/12/21 07:05:54;;;;;;;27.20;8.77;;;;;;;;;;4853478;29;20480;-80
2021/12/21 07:08:26;;;;;;;22.92;8.73;;;;;;;;;;4860115;29;20037;-79
2021/12/21 07:11:00;;;;;;;22.48;8.80;;;;;;;;;;4859626;29;21555;-79
2021/12/21 07:19:10;;;;;;;23.05;8.35;;;;;;;;;;4825956;29;20029;-80
2021/12/21 07:21:36;;;;;;;24.83;8.30;;;;;;;;;;4873674;29;20509;-80
2021/12/21 07:24:02;;;;;;;22.88;9.10;;;;;;;;;;4856101;29;20092;-81
2021/12/21 07:26:28;;;;;;;20.65;7.88;;;;;;;;;;4855103;29;20045;-80
2021/12/21 07:28:54;;;;;;;25.70;8.40;;;;;;;;;;4857013;29;20389;-80
2021/12/21 07:31:20;;;;;;;19.83;8.48;;;;;;;;;;4859514;29;20493;-80
2021/12/21 07:33:46;;;;;;;27.35;8.25;;;;;;;;;;4852451;29;20060;-80
2021/12/21 07:36:13;;;;;;;23.00;9.00;;;;;;;;;;4866080;29;20072;-80
2021/12/21 07:38:39;;;;;;;21.85;8.27;;;;;;;;;;4856970;29;20572;-80
2021/12/21 07:41:05;;;;;;;19.52;8.60;;;;;;;;;;4857220;29;20033;-80
2021/12/21 07:43:31;;;;;;;21.75;8.50;;;;;;;;;;4855950;29;20056;-84
2021/12/21 07:45:57;;;;;;;18.55;7.70;;;;;;;;;;4854932;29;20509;-83
2021/12/21 07:48:23;;;;;;;19.20;8.55;;;;;;;;;;4871189;29;20771;-83
2021/12/21 07:50:51;;;;;;;24.92;8.07;;;;;;;;;;4859735;29;20517;-83
2021/12/21 07:53:18;;;;;;;23.75;9.55;;;;;;;;;;4858153;29;20526;-83
2021/12/21 07:55:44;;;;;;;23.05;8.73;;;;;;;;;;4858963;29;20494;-84
2021/12/21 07:58:11;;;;;;;29.98;9.00;;;;;;;;;;4868358;29;20493;-83
2021/12/21 08:00:37;;;;;;;27.17;10.18;;;;;;;;;;4852023;29;20375;-83
2021/12/21 08:03:04;;;;;;;22.05;9.40;;;;;;;;;;4851384;29;20048;-83
2021/12/21 08:05:33;;;;;;;20.35;8.80;;;;;;;;;;4871069;29;20057;-83
2021/12/21 08:08:10;;;;;;;30.73;10.52;;;;;;;;;;4851773;29;20040;-83
2021/12/21 08:10:50;;;;;;;24.60;9.15;;;;;;;;;;4856739;29;20112;-83
2021/12/21 08:13:16;;;;;;;22.70;9.45;;;;;;;;;;4867791;29;20025;-83
2021/12/21 08:15:42;;;;;;;28.25;9.25;;;;;;;;;;4869756;29;20033;-84
2021/12/21 08:18:08;;;;;;;26.23;9.25;;;;;;;;;;4872929;29;20044;-83
2021/12/21 08:20:35;;;;;;;20.95;9.77;;;;;;;;;;4859666;29;20444;-84
2021/12/21 08:23:02;;;;;;;20.95;8.98;;;;;;;;;;4856167;29;20541;-84
2021/12/21 08:25:28;;;;;;;29.10;8.77;;;;;;;;;;4854719;29;20637;-84
2021/12/21 08:27:58;;;;;;;25.75;6.97;;;;;;;;;;4869249;29;20049;-84
2021/12/21 08:30:25;;;;;;;17.17;6.47;;;;;;;;;;4868940;29;20034;-83
2021/12/21 08:32:51;;;;;;;16.73;7.38;;;;;;;;;;4856551;29;20033;-83
2021/12/21 08:35:17;;;;;;;15.43;7.53;;;;;;;;;;4856788;29;20061;-84
2021/12/21 08:37:51;;;;;;;19.83;7.75;;;;;;;;;;4858417;29;20065;-83
2021/12/21 08:40:24;;;;;;;18.67;7.32;;;;;;;;;;4856395;29;20496;-84
2021/12/21 08:42:51;;;;;;;18.67;8.25;;;;;;;;;;4852310;29;20029;-83
2021/12/21 08:45:17;;;;;;;17.10;7.50;;;;;;;;;;4858103;29;20037;-84
2021/12/21 08:47:43;;;;;;;15.52;7.30;;;;;;;;;;4849896;29;20101;-83
2021/12/21 08:50:11;;;;;;;23.50;7.95;;;;;;;;;;4872322;29;20033;-83
2021/12/21 08:52:38;;;;;;;23.77;7.57;;;;;;;;;;4866021;29;20037;-83
2021/12/21 08:55:04;;;;;;;23.65;8.85;;;;;;;;;;4854821;29;20022;-83
2021/12/21 08:57:31;;;;;;;20.52;8.07;;;;;;;;;;4868234;29;20048;-83
2021/12/21 08:59:57;;;;;;;36.17;10.43;;;;;;;;;;4869061;29;20532;-84
2021/12/21 09:02:23;;;;;;;37.67;12.32;;;;;;;;;;4856650;29;20076;-84
2021/12/21 09:04:49;;;;;;;29.80;11.40;;;;;;;;;;4868634;29;20120;-84
2021/12/21 09:07:15;;;;;;;32.65;11.40;;;;;;;;;;4855128;29;20545;-84
2021/12/21 09:09:41;;;;;;;23.05;10.80;;;;;;;;;;4856516;29;20045;-84
2021/12/21 09:12:09;;;;;;;28.58;10.60;;;;;;;;;;4856504;29;20679;-83
2021/12/21 09:14:35;;;;;;;42.47;10.95;;;;;;;;;;4853878;29;20040;-84
2021/12/21 09:17:01;;;;;;;34.92;9.90;;;;;;;;;;4851780;29;20446;-83
2021/12/21 09:19:28;;;;;;;24.20;8.95;;;;;;;;;;4854297;29;20147;-83
2021/12/21 09:21:54;;;;;;;33.35;10.63;;;;;;;;;;4856251;29;20039;-83
2021/12/21 09:24:20;;;;;;;25.15;10.32;;;;;;;;;;4856615;29;20048;-84
2021/12/21 09:26:46;;;;;;;26.83;9.25;;;;;;;;;;4855573;29;20040;-80
2021/12/21 09:29:12;;;;;;;33.63;10.18;;;;;;;;;;4852248;29;20178;-80
2021/12/21 09:31:38;;;;;;;23.17;9.20;;;;;;;;;;4853630;29;20037;-80
2021/12/21 09:34:04;;;;;;;30.80;8.73;;;;;;;;;;4851822;29;20521;-80
2021/12/21 09:36:31;;;;;;;32.42;9.07;;;;;;;;;;4855016;29;20037;-81
2021/12/21 09:38:58;;;;;;;24.08;8.90;;;;;;;;;;4855319;29;20510;-80
2021/12/21 09:41:24;;;;;;;26.10;8.50;;;;;;;;;;4869150;29;20030;-79
2021/12/21 09:43:50;;;;;;;23.52;8.05;;;;;;;;;;4858542;29;20054;-80
2021/12/21 09:46:17;;;;;;;20.35;8.57;;;;;;;;;;4848547;29;20493;-80
2021/12/21 09:48:44;;;;;;;30.13;9.45;;;;;;;;;;4867214;29;20115;-80
2021/12/21 09:51:10;;;;;;;23.15;8.85;;;;;;;;;;4853761;29;20101;-79
2021/12/21 09:53:36;;;;;;;21.27;9.00;;;;;;;;;;4852168;29;20056;-80
2021/12/21 09:56:04;;;;;;;20.77;8.85;;;;;;;;;;4854825;29;20057;-80
2021/12/21 09:58:30;;;;;;;38.92;10.30;;;;;;;;;;4852948;29;20036;-79
2021/12/21 10:00:56;;;;;;;23.60;8.35;;;;;;;;;;4855981;29;20088;-80
2021/12/21 10:03:22;;;;;;;35.55;9.18;;;;;;;;;;4850580;29;20036;-81
2021/12/21 10:05:49;;;;;;;18.92;9.10;;;;;;;;;;4839256;29;20063;-80
2021/12/21 10:08:16;;;;;;;22.98;9.10;;;;;;;;;;4851505;29;20740;-80
2021/12/21 10:10:44;;;;;;;22.42;8.82;;;;;;;;;;4832871;29;20090;-80
2021/12/21 10:13:12;;;;;;;19.95;9.23;;;;;;;;;;4833312;29;20029;-81
2021/12/21 10:15:39;;;;;;;19.75;9.27;;;;;;;;;;4836192;29;20029;-80
2021/12/21 10:18:06;;;;;;;22.17;10.88;;;;;;;;;;4832593;29;20042;-80
2021/12/21 10:20:33;;;;;;;27.85;12.48;;;;;;;;;;4849924;29;20041;-80
2021/12/21 10:22:59;;;;;;;28.02;11.65;;;;;;;;;;4851045;29;20461;-80
2021/12/21 10:25:26;;;;;;;25.23;8.80;;;;;;;;;;4848012;29;20033;-80
2021/12/21 10:27:52;;;;;;;18.52;8.73;;;;;;;;;;4830192;29;20041;-80
2021/12/21 10:30:19;;;;;;;19.00;8.43;;;;;;;;;;4834441;29;20037;-80
2021/12/21 10:32:50;;;;;;;17.20;8.48;;;;;;;;;;4831397;29;20026;-80
2021/12/21 10:35:16;;;;;;;17.50;8.02;;;;;;;;;;4833659;29;20607;-80
2021/12/21 10:37:42;;;;;;;14.68;6.75;;;;;;;;;;4848769;29;20487;-81
2021/12/21 10:40:17;;;;;;;20.02;7.68;;;;;;;;;;4847409;29;20042;-80
2021/12/21 10:42:55;;;;;;;19.02;7.97;;;;;;;;;;4848160;29;20048;-80
2021/12/21 10:45:25;;;;;;;21.05;8.15;;;;;;;;;;4833435;29;20040;-80
2021/12/21 10:47:52;;;;;;;18.92;8.50;;;;;;;;;;4835052;29;20083;-80
2021/12/21 10:50:18;;;;;;;19.25;8.82;;;;;;;;;;4832398;29;20030;-79
2021/12/21 10:52:49;;;;;;;12.98;8.45;;;;;;;;;;4837021;29;20033;-80
2021/12/21 10:55:14;;;;;;;15.88;8.52;;;;;;;;;;4849369;29;20026;-80
2021/12/21 10:57:47;;;;;;;14.27;7.88;;;;;;;;;;4834968;29;20045;-80
2021/12/21 11:00:16;;;;;;;12.35;8.20;;;;;;;;;;4846476;29;20037;-80
2021/12/21 11:02:43;;;;;;;17.00;8.35;;;;;;;;;;4834636;29;20053;-80
2021/12/21 11:05:15;;;;;;;17.55;9.18;;;;;;;;;;4859480;29;20059;-80
2021/12/21 11:07:49;;;;;;;20.23;9.18;;;;;;;;;;4851388;29;20173;-80
2021/12/21 11:10:19;;;;;;;18.23;9.07;;;;;;;;;;4853185;29;20037;-80
2021/12/21 11:12:52;;;;;;;21.63;9.63;;;;;;;;;;4864976;29;20052;-80
2021/12/21 11:15:22;;;;;;;10.27;8.60;;;;;;;;;;4856228;29;20032;-80
2021/12/21 11:17:48;;;;;;;15.63;9.43;;;;;;;;;;4865339;29;20036;-79
2021/12/21 11:20:15;;;;;;;13.63;9.88;;;;;;;;;;4851349;29;20037;-84
2021/12/21 11:22:42;;;;;;;16.75;9.98;;;;;;;;;;4866084;29;20105;-84
2021/12/21 11:25:09;;;;;;;14.85;9.38;;;;;;;;;;4859421;29;20480;-84
2021/12/21 11:27:37;;;;;;;18.85;9.57;;;;;;;;;;4852080;29;20041;-83
2021/12/21 11:30:05;;;;;;;10.73;7.38;;;;;;;;;;4854726;29;20033;-85
2021/12/21 11:32:34;;;;;;;15.77;7.63;;;;;;;;;;4855751;29;22515;-81
2021/12/21 11:37:40;;;;;;;16.83;6.65;;;;;;;;;;4864974;29;20050;-80
2021/12/21 11:40:08;;;;;;;13.02;6.55;;;;;;;;;;4866910;29;20048;-80
2021/12/21 11:42:40;;;;;;;7.15;5.20;;;;;;;;;;4868465;29;20095;-80
2021/12/21 11:45:26;;;;;;;13.10;6.30;;;;;;;;;;4865532;29;20043;-80
2021/12/21 11:47:55;;;;;;;13.50;6.45;;;;;;;;;;4850479;29;20101;-81
2021/12/21 11:50:21;;;;;;;11.20;6.40;;;;;;;;;;4849387;29;20037;-81
2021/12/21 11:52:51;;;;;;;13.60;5.53;;;;;;;;;;4866777;29;20044;-81
2021/12/21 11:55:19;;;;;;;14.02;6.28;;;;;;;;;;4872641;29;20128;-80
2021/12/21 11:57:47;;;;;;;14.13;5.28;;;;;;;;;;4870346;29;21099;-81
2021/12/21 12:00:15;;;;;;;12.50;5.15;;;;;;;;;;4859794;29;20119;-80
2021/12/21 12:02:42;;;;;;;8.57;5.05;;;;;;;;;;4867751;29;20462;-80
2021/12/21 12:05:17;;;;;;;12.63;4.85;;;;;;;;;;4868073;29;20064;-81
2021/12/21 12:07:44;;;;;;;9.77;5.07;;;;;;;;;;4870903;29;20413;-80
2021/12/21 12:10:12;;;;;;;8.13;4.75;;;;;;;;;;4869960;29;20393;-80
2021/12/21 12:12:38;;;;;;;11.68;4.70;;;;;;;;;;4872803;29;20163;-80
2021/12/21 12:15:05;;;;;;;10.50;5.20;;;;;;;;;;4853447;29;20178;-81
2021/12/21 12:17:32;;;;;;;7.35;4.85;;;;;;;;;;4854281;29;20037;-81
2021/12/21 12:20:04;;;;;;;8.50;4.60;;;;;;;;;;4851017;29;20036;-81
2021/12/21 12:22:38;;;;;;;8.00;5.13;;;;;;;;;;4854525;29;20040;-81
2021/12/21 12:25:06;;;;;;;16.77;7.90;;;;;;;;;;4866078;29;20033;-82
2021/12/21 12:27:32;;;;;;;10.13;5.57;;;;;;;;;;4869759;29;20048;-81
2021/12/21 12:30:00;;;;;;;12.65;4.65;;;;;;;;;;4854297;29;20541;-81
2021/12/21 12:32:32;;;;;;;10.15;4.50;;;;;;;;;;4854291;29;20630;-81
2021/12/21 12:35:01;;;;;;;9.73;4.78;;;;;;;;;;4856405;29;20959;-81
2021/12/21 12:37:27;;;;;;;8.52;4.45;;;;;;;;;;4869690;29;20583;-80
2021/12/21 12:39:55;;;;;;;12.98;4.95;;;;;;;;;;4874503;29;20044;-81
2021/12/21 12:42:25;;;;;;;10.90;4.32;;;;;;;;;;4852703;29;20033;-80
2021/12/21 12:45:06;;;;;;;8.95;4.85;;;;;;;;;;4854998;29;20033;-80
2021/12/21 12:47:33;;;;;;;13.02;4.53;;;;;;;;;;4855079;29;20100;-80
2021/12/21 12:49:59;;;;;;;9.98;4.68;;;;;;;;;;4870974;29;20383;-80
2021/12/21 12:52:30;;;;;;;8.95;4.22;;;;;;;;;;4855758;29;20029;-81
2021/12/21 12:55:01;;;;;;;11.48;4.18;;;;;;;;;;4867702;29;20311;-81
2021/12/21 12:57:29;;;;;;;9.63;3.80;;;;;;;;;;4866534;29;21015;-81
2021/12/21 12:59:56;;;;;;;9.75;3.97;;;;;;;;;;4869085;29;20033;-80
2021/12/21 13:02:24;;;;;;;11.68;4.13;;;;;;;;;;4868247;29;20706;-81
2021/12/21 13:04:51;;;;;;;12.30;3.83;;;;;;;;;;4859951;29;20494;-80
2021/12/21 13:07:24;;;;;;;12.25;4.30;;;;;;;;;;4834145;29;20030;-82
2021/12/21 13:09:50;;;;;;;14.85;4.20;;;;;;;;;;4850885;29;20197;-81
2021/12/21 13:12:17;;;;;;;9.55;5.68;;;;;;;;;;4834323;29;20128;-81
2021/12/21 13:14:52;;;;;;;11.65;3.85;;;;;;;;;;4834780;29;20516;-80
2021/12/21 13:17:18;;;;;;;6.40;3.72;;;;;;;;;;4834997;29;20134;-81
2021/12/21 13:19:44;;;;;;;9.50;3.63;;;;;;;;;;4833560;29;20075;-81
2021/12/21 13:22:11;;;;;;;9.43;4.35;;;;;;;;;;4829442;29;20510;-81
2021/12/21 13:24:42;;;;;;;9.68;3.55;;;;;;;;;;4836823;29;20049;-81
2021/12/21 13:27:13;;;;;;;8.80;3.40;;;;;;;;;;4833044;29;20241;-81
2021/12/21 13:29:41;;;;;;;10.80;3.33;;;;;;;;;;4847951;29;20118;-82
2021/12/21 13:32:09;;;;;;;13.93;3.80;;;;;;;;;;4849840;29;20053;-82
2021/12/21 13:34:35;;;;;;;14.02;3.65;;;;;;;;;;4833143;29;20505;-81
2021/12/21 13:37:03;;;;;;;13.88;3.67;;;;;;;;;;4850839;29;20021;-82
2021/12/21 13:39:32;;;;;;;14.30;3.17;;;;;;;;;;4836002;29;20490;-85
2021/12/21 13:42:03;;;;;;;8.88;4.15;;;;;;;;;;4834390;29;20457;-85
2021/12/21 13:44:37;;;;;;;10.38;3.88;;;;;;;;;;4848082;29;20522;-85
2021/12/21 13:47:06;;;;;;;14.63;4.43;;;;;;;;;;4847590;29;20046;-85
2021/12/21 13:49:32;;;;;;;7.97;3.50;;;;;;;;;;4849532;29;20041;-85
2021/12/21 13:52:01;;;;;;;10.07;4.10;;;;;;;;;;4831282;29;20057;-84
2021/12/21 13:54:27;;;;;;;8.27;3.88;;;;;;;;;;4835103;29;20152;-84
2021/12/21 13:56:54;;;;;;;13.23;4.10;;;;;;;;;;4833117;29;20405;-84
2021/12/21 13:59:20;;;;;;;7.85;2.97;;;;;;;;;;4834046;29;20049;-84
2021/12/21 14:01:48;;;;;;;14.05;3.55;;;;;;;;;;4846730;29;20522;-83
2021/12/21 14:04:26;;;;;;;6.72;3.08;;;;;;;;;;4838552;29;20061;-84
2021/12/21 14:06:59;;;;;;;8.13;2.95;;;;;;;;;;4871943;29;20506;-84
2021/12/21 14:09:25;;;;;;;8.40;3.45;;;;;;;;;;4855756;29;20033;-83
2021/12/21 14:11:55;;;;;;;10.98;3.70;;;;;;;;;;4870814;29;20033;-83
2021/12/21 14:14:22;;;;;;;9.82;3.95;;;;;;;;;;4870095;29;20501;-84
2021/12/21 14:16:51;;;;;;;16.02;4.75;;;;;;;;;;4854112;29;20106;-83
2021/12/21 14:19:19;;;;;;;14.45;4.30;;;;;;;;;;4863508;29;20446;-84
2021/12/21 14:21:47;;;;;;;24.60;4.28;;;;;;;;;;4856894;29;20298;-83
2021/12/21 14:24:21;;;;;;;9.65;3.80;;;;;;;;;;4870242;29;20057;-84
2021/12/21 14:26:50;;;;;;;14.63;4.65;;;;;;;;;;4872650;29;20148;-84
2021/12/21 14:29:18;;;;;;;16.50;4.03;;;;;;;;;;4853385;29;20093;-84
2021/12/21 14:34:22;;;;;;;9.82;3.58;;;;;;;;;;4871041;29;20029;-85
2021/12/21 14:36:51;;;;;;;6.53;3.45;;;;;;;;;;4869399;29;20029;-84
2021/12/21 14:39:18;;;;;;;15.52;4.32;;;;;;;;;;4866001;29;20033;-83
2021/12/21 14:41:46;;;;;;;10.75;4.85;;;;;;;;;;4867107;29;20505;-84
2021/12/21 14:44:16;;;;;;;13.82;4.70;;;;;;;;;;4855216;29;20040;-84
2021/12/21 14:46:55;;;;;;;12.25;4.95;;;;;;;;;;4854836;29;20049;-84
2021/12/21 14:49:32;;;;;;;13.27;5.03;;;;;;;;;;4869219;29;20033;-84
2021/12/21 14:52:00;;;;;;;19.52;5.78;;;;;;;;;;4867604;29;20025;-83
2021/12/21 14:54:30;;;;;;;13.25;4.80;;;;;;;;;;4848236;29;20040;-84
2021/12/21 14:57:04;;;;;;;18.42;4.78;;;;;;;;;;4868142;29;20112;-84
2021/12/21 14:59:31;;;;;;;15.80;5.00;;;;;;;;;;4850782;29;20051;-84
2021/12/21 15:02:03;;;;;;;11.98;4.80;;;;;;;;;;4868492;29;20151;-84
2021/12/21 15:04:30;;;;;;;21.50;5.82;;;;;;;;;;4871639;29;20033;-84
2021/12/21 15:06:57;;;;;;;14.90;5.82;;;;;;;;;;4833401;29;20387;-84
2021/12/21 15:09:23;;;;;;;27.42;6.97;;;;;;;;;;4834426;29;20128;-84
2021/12/21 15:11:51;;;;;;;21.75;7.28;;;;;;;;;;4835671;29;20165;-84
2021/12/21 15:14:17;;;;;;;15.55;6.30;;;;;;;;;;4852196;29;20030;-83
2021/12/21 15:16:43;;;;;;;27.92;8.68;;;;;;;;;;4835538;29;20108;-83
2021/12/21 15:19:09;;;;;;;21.85;6.03;;;;;;;;;;4838967;29;20286;-84
2021/12/21 15:21:36;;;;;;;18.48;6.88;;;;;;;;;;4834490;29;20537;-84
2021/12/21 15:24:02;;;;;;;15.55;6.55;;;;;;;;;;4850962;29;20379;-84
2021/12/21 15:26:29;;;;;;;16.98;6.50;;;;;;;;;;4855141;29;20069;-83
2021/12/21 15:28:55;;;;;;;12.23;6.05;;;;;;;;;;4843488;29;20068;-84